Alvorada d'Oeste, Brazil
Current Conditions -  °F | °C
As of 9:00 PM on Tuesday 25 Nov 2014 (Local Time) from SBVH Reporting Station
Light Rain Light Rain  
Wind Chill: 72°   Ceiling: 1700
Heat Index: 72°   Visibility: 6mi
Dew Point: 72°   Wind: 5mph
Humidity: 100%   Direction: 310°NW
Pressure: 29.91"   Gusts: NA
Location:  11.34°S, 62.29°W
Report Text: SBVH 260100Z 31004KT 9999 -RA SCT006 BKN017 BKN090 22/22 Q1013
Loading
Personal Weather Stations






























Interactive Weather Map New forecast layout! Learn more

10-Day Weather Forecast

Advertisements
Track Severe Weather on mobile